createdAt,value
2022-08-22T00:04:12.129Z,94.70
2022-08-22T00:09:31.671Z,95.10
2022-08-22T00:14:51.282Z,95.50
2022-08-22T00:19:56.182Z,95.80
2022-08-22T00:25:28.225Z,96.20
2022-08-22T00:30:34.223Z,96.00
2022-08-22T00:35:44.953Z,96.50
2022-08-22T00:40:55.630Z,96.40
2022-08-22T00:46:19.426Z,96.60
2022-08-22T00:51:39.746Z,96.80
2022-08-22T00:57:00.116Z,96.90
2022-08-22T01:02:25.114Z,97.10
2022-08-22T01:08:02.424Z,97.10
2022-08-22T01:13:31.242Z,97.40
2022-08-22T01:18:50.290Z,97.70
2022-08-22T01:24:29.756Z,97.60
2022-08-22T01:29:56.125Z,97.50
2022-08-22T01:35:11.723Z,97.90
2022-08-22T01:40:22.840Z,98.30
2022-08-22T01:45:34.441Z,98.50
2022-08-22T01:50:39.299Z,98.80
2022-08-22T01:55:56.100Z,99.30
2022-08-22T02:01:13.112Z,99.20
2022-08-22T02:06:22.989Z,99.70
2022-08-22T02:11:38.060Z,99.70
2022-08-22T02:16:47.510Z,99.60
2022-08-22T02:22:03.578Z,99.90
2022-08-22T02:27:10.335Z,99.90
2022-08-22T02:32:38.530Z,99.90
2022-08-22T02:38:10.235Z,99.90
2022-08-22T02:43:23.223Z,99.90
2022-08-22T02:48:36.787Z,99.90
2022-08-22T02:54:01.973Z,99.90
2022-08-22T02:59:15.812Z,99.90
2022-08-22T03:04:23.348Z,99.90
2022-08-22T03:09:36.871Z,99.90
2022-08-22T03:14:44.574Z,99.90
2022-08-22T03:20:00.230Z,99.90
2022-08-22T03:25:30.746Z,99.90
2022-08-22T03:30:57.936Z,99.90
2022-08-22T03:36:11.199Z,99.90
2022-08-22T03:41:12.929Z,99.90
2022-08-22T03:46:36.015Z,99.90
2022-08-22T03:52:10.174Z,99.90
2022-08-22T03:57:48.226Z,99.90
2022-08-22T04:02:58.886Z,99.90
2022-08-22T04:08:29.012Z,99.90
2022-08-22T04:13:53.532Z,99.90
2022-08-22T04:19:34.215Z,99.90
2022-08-22T04:24:59.694Z,99.90
2022-08-22T04:30:22.162Z,99.90
2022-08-22T04:35:34.990Z,99.90
2022-08-22T04:40:50.227Z,99.90
2022-08-22T04:46:12.947Z,99.90
2022-08-22T04:51:27.520Z,99.90
2022-08-22T04:56:57.769Z,99.90
2022-08-22T05:02:06.545Z,99.90
2022-08-22T05:07:13.671Z,99.90
2022-08-22T05:12:23.018Z,99.90
2022-08-22T05:17:28.916Z,99.90
2022-08-22T05:22:36.557Z,99.90
2022-08-22T05:27:48.903Z,96.20
2022-08-22T05:33:12.263Z,92.00
2022-08-22T05:38:18.031Z,88.70
2022-08-22T05:43:23.083Z,86.00
2022-08-22T05:48:42.055Z,81.40
2022-08-22T05:53:50.771Z,77.10
2022-08-22T05:59:02.953Z,74.30
2022-08-22T06:04:35.882Z,71.90
2022-08-22T06:09:43.494Z,71.40
2022-08-22T06:14:56.957Z,74.20
2022-08-22T06:20:00.236Z,73.20
2022-08-22T06:25:12.770Z,71.90
2022-08-22T06:30:16.509Z,67.50
2022-08-22T06:35:55.424Z,66.90
2022-08-22T06:41:00.731Z,66.80
2022-08-22T06:46:02.939Z,65.80
2022-08-22T06:51:07.273Z,64.00
2022-08-22T06:56:10.037Z,62.40
2022-08-22T07:01:27.750Z,61.20
2022-08-22T07:06:34.430Z,62.50
2022-08-22T07:11:41.631Z,60.90
2022-08-22T07:17:00.030Z,58.30
2022-08-22T07:22:15.004Z,58.60
2022-08-22T07:27:56.748Z,56.60
2022-08-22T07:33:23.628Z,55.40
2022-08-22T07:38:33.496Z,56.30
2022-08-22T07:43:48.557Z,51.30
2022-08-22T07:49:09.375Z,50.70
2022-08-22T07:54:29.321Z,53.20
2022-08-22T07:59:35.066Z,52.10
2022-08-22T08:04:40.567Z,52.90
2022-08-22T08:09:50.742Z,53.50
2022-08-22T08:14:54.918Z,50.90
2022-08-22T08:19:57.339Z,53.10
2022-08-22T08:25:00.622Z,51.20
2022-08-22T08:30:15.553Z,51.50
2022-08-22T08:35:25.429Z,49.40
2022-08-22T08:40:53.279Z,49.90
2022-08-22T08:46:10.725Z,50.10
2022-08-22T08:51:50.901Z,49.70
2022-08-22T08:56:59.603Z,49.20
2022-08-22T09:02:33.909Z,49.60
2022-08-22T09:08:00.779Z,47.60
2022-08-22T09:18:59.360Z,47.80
2022-08-22T09:24:35.508Z,47.60
2022-08-22T09:29:55.273Z,47.50
2022-08-22T09:35:25.871Z,47.10
2022-08-22T09:40:44.672Z,46.20
2022-08-22T09:46:31.353Z,48.50
2022-08-22T09:51:58.120Z,48.90
2022-08-22T09:57:24.674Z,46.70
2022-08-22T10:02:57.254Z,48.50
2022-08-22T10:08:13.547Z,49.50
2022-08-22T10:13:29.679Z,47.90
2022-08-22T10:18:43.997Z,49.30
2022-08-22T10:24:25.975Z,48.20
2022-08-22T10:30:08.975Z,46.30
2022-08-22T10:35:10.763Z,43.90
2022-08-22T10:40:16.103Z,44.90
2022-08-22T10:45:42.438Z,45.50
2022-08-22T10:50:49.986Z,46.30
2022-08-22T10:55:58.443Z,46.70
2022-08-22T11:01:37.489Z,45.90
2022-08-22T11:07:03.253Z,46.40
2022-08-22T11:12:15.667Z,47.10
2022-08-22T11:17:54.495Z,47.30
2022-08-22T11:23:14.647Z,45.10
2022-08-22T11:28:30.137Z,46.50
2022-08-22T11:33:47.430Z,47.60
2022-08-22T11:39:23.254Z,46.60
2022-08-22T11:44:34.546Z,45.10
2022-08-22T11:49:55.403Z,45.80
2022-08-22T11:55:07.166Z,45.10
2022-08-22T12:00:45.208Z,44.20
2022-08-22T12:05:55.614Z,45.20
2022-08-22T12:11:08.680Z,44.60
2022-08-22T12:16:24.532Z,43.40
2022-08-22T12:21:50.623Z,44.00
2022-08-22T12:27:29.151Z,44.90
2022-08-22T12:32:37.012Z,45.60
2022-08-22T12:37:56.675Z,45.90
2022-08-22T12:43:13.723Z,44.60
2022-08-22T12:48:33.603Z,44.30
2022-08-22T12:54:17.319Z,44.10
2022-08-22T12:59:25.326Z,43.80
2022-08-22T13:04:33.569Z,45.20
2022-08-22T13:09:43.169Z,47.40
2022-08-22T13:14:47.516Z,47.70
2022-08-22T13:19:59.063Z,46.70
2022-08-22T13:25:29.966Z,45.60
2022-08-22T13:30:38.760Z,44.80
2022-08-22T13:35:55.240Z,44.70
2022-08-22T13:40:58.306Z,44.80
2022-08-22T13:46:07.279Z,44.60
2022-08-22T13:51:19.304Z,44.30
2022-08-22T13:56:29.839Z,44.30
2022-08-22T14:01:49.021Z,43.80
2022-08-22T14:07:04.374Z,43.30
2022-08-22T14:12:18.490Z,43.20
2022-08-22T14:17:28.152Z,42.90
2022-08-22T14:22:35.434Z,43.70
2022-08-22T14:28:00.854Z,42.90
2022-08-22T14:33:34.086Z,42.10
2022-08-22T14:38:40.636Z,42.20
2022-08-22T14:44:11.940Z,42.20
2022-08-22T14:49:20.430Z,42.90
2022-08-22T14:54:29.167Z,41.90
2022-08-22T14:59:52.264Z,41.40
2022-08-22T15:04:55.400Z,41.60
2022-08-22T15:10:07.320Z,42.10
2022-08-22T15:15:32.573Z,41.90
2022-08-22T15:20:45.373Z,41.60
2022-08-22T15:26:13.297Z,41.70
2022-08-22T15:31:18.800Z,42.20
2022-08-22T15:36:26.559Z,42.50
2022-08-22T15:41:36.315Z,42.40
2022-08-22T15:46:55.965Z,42.80
2022-08-22T15:51:59.318Z,42.80
2022-08-22T15:57:38.817Z,43.00
2022-08-22T16:02:56.345Z,43.30
2022-08-22T16:07:58.073Z,43.40
2022-08-22T16:13:14.695Z,44.00
2022-08-22T16:18:34.471Z,43.60
2022-08-22T16:23:53.543Z,44.90
2022-08-22T16:29:32.103Z,47.00
2022-08-22T16:34:42.518Z,47.20
2022-08-22T16:39:48.688Z,47.70
2022-08-22T16:45:24.462Z,47.70
2022-08-22T16:50:38.314Z,47.80
2022-08-22T16:56:24.317Z,49.20
2022-08-22T17:01:50.493Z,48.30
2022-08-22T17:07:17.199Z,48.10
2022-08-22T17:12:56.514Z,48.40
2022-08-22T17:18:21.711Z,48.60
2022-08-22T17:23:57.376Z,48.90
2022-08-22T17:29:33.881Z,48.60
2022-08-22T17:34:42.744Z,48.70
2022-08-22T17:39:57.842Z,49.30
2022-08-22T17:45:04.258Z,49.60
2022-08-22T17:50:18.535Z,50.80
2022-08-22T17:55:27.919Z,51.40
2022-08-22T18:00:34.796Z,52.00
2022-08-22T18:05:46.798Z,52.00
2022-08-22T18:11:15.365Z,52.70
2022-08-22T18:16:47.815Z,52.80
2022-08-22T18:21:59.677Z,53.10
2022-08-22T18:27:09.395Z,53.50
2022-08-22T18:32:43.707Z,53.70
2022-08-22T18:38:19.260Z,54.80
2022-08-22T18:43:31.802Z,55.10
2022-08-22T18:49:05.363Z,55.50
2022-08-22T18:54:04.724Z,56.30
2022-08-22T18:59:43.633Z,56.80
2022-08-22T19:04:56.995Z,56.90
2022-08-22T19:10:29.474Z,57.50
2022-08-22T19:15:47.669Z,57.30
2022-08-22T19:21:53.434Z,57.60
2022-08-22T19:27:07.216Z,57.70
2022-08-22T19:32:12.937Z,57.80
2022-08-22T19:37:30.740Z,57.90
2022-08-22T19:42:38.998Z,58.60
2022-08-22T19:47:42.712Z,58.50
2022-08-22T19:53:03.408Z,58.90
2022-08-22T19:58:30.254Z,58.80
2022-08-22T20:03:49.378Z,58.70
2022-08-22T20:09:08.466Z,58.70
2022-08-22T20:14:25.028Z,59.40
2022-08-22T20:19:41.621Z,60.50
2022-08-22T20:24:43.436Z,61.20
2022-08-22T20:29:54.472Z,62.00
2022-08-22T20:35:00.051Z,62.10
2022-08-22T20:40:54.827Z,62.60
2022-08-22T20:46:04.360Z,63.30
2022-08-22T20:51:09.743Z,64.10
2022-08-22T20:56:12.004Z,64.10
2022-08-22T21:01:15.731Z,65.00
2022-08-22T21:06:18.962Z,65.80
2022-08-22T21:11:40.562Z,65.80
2022-08-22T21:16:42.331Z,66.50
2022-08-22T21:21:44.167Z,67.60
2022-08-22T21:27:00.290Z,68.00
2022-08-22T21:32:14.489Z,68.60
2022-08-22T21:37:40.041Z,69.00
2022-08-22T21:42:45.343Z,69.20
2022-08-22T21:47:47.209Z,69.70
2022-08-22T21:52:54.790Z,69.30
2022-08-22T21:58:05.770Z,69.20
2022-08-22T22:03:07.528Z,69.40
2022-08-22T22:08:13.308Z,69.70
2022-08-22T22:13:16.728Z,70.40
2022-08-22T22:18:22.133Z,70.50
2022-08-22T22:23:25.173Z,70.20
2022-08-22T22:28:32.837Z,70.30
2022-08-22T22:33:37.292Z,70.70
2022-08-22T22:38:40.792Z,71.40
2022-08-22T22:43:42.532Z,72.00
2022-08-22T22:48:44.340Z,72.50
2022-08-22T22:53:46.548Z,73.10
2022-08-22T22:58:49.459Z,73.10
2022-08-22T23:03:59.485Z,73.60
2022-08-22T23:09:07.456Z,74.20
2022-08-22T23:14:09.165Z,74.80
2022-08-22T23:19:13.827Z,75.70
2022-08-22T23:24:16.156Z,75.90
2022-08-22T23:29:18.269Z,77.30
2022-08-22T23:34:29.103Z,77.50
2022-08-22T23:39:31.745Z,77.90
2022-08-22T23:44:35.607Z,78.50
2022-08-22T23:49:38.397Z,79.30
2022-08-22T23:54:40.312Z,79.90
2022-08-22T23:59:47.886Z,80.50
